sensor_id;sensor_type;location;lat;lon;timestamp;pressure;altitude;pressure_sealevel;temperature;humidity
5350;BME280;2697;42.144;24.794;2023-10-09T00:00:24;158360.44;;;22.37;52.75
5350;BME280;2697;42.144;24.794;2023-10-09T00:03:06;158329.91;;;22.26;53.09
5350;BME280;2697;42.144;24.794;2023-10-09T00:05:33;158323.22;;;22.23;53.07
5350;BME280;2697;42.144;24.794;2023-10-09T00:08:24;158341.81;;;22.30;52.97
5350;BME280;2697;42.144;24.794;2023-10-09T00:11:01;158312.63;;;22.19;53.36
5350;BME280;2697;42.144;24.794;2023-10-09T00:13:40;158324.56;;;22.24;53.16
5350;BME280;2697;42.144;24.794;2023-10-09T00:16:21;158341.81;;;22.30;52.87
5350;BME280;2697;42.144;24.794;2023-10-09T00:19:10;158313.94;;;22.19;53.50
5350;BME280;2697;42.144;24.794;2023-10-09T00:21:44;158304.66;;;22.16;53.71
5350;BME280;2697;42.144;24.794;2023-10-09T00:24:11;158263.44;;;22.00;54.19
5350;BME280;2697;42.144;24.794;2023-10-09T00:26:44;158220.94;;;21.84;55.03
5350;BME280;2697;42.144;24.794;2023-10-09T00:29:11;158194.38;;;21.74;55.46
5350;BME280;2697;42.144;24.794;2023-10-09T00:31:41;158187.75;;;21.71;55.78
5350;BME280;2697;42.144;24.794;2023-10-09T00:34:18;158183.78;;;21.70;56.00
5350;BME280;2697;42.144;24.794;2023-10-09T00:36:47;158130.63;;;21.49;56.72
5350;BME280;2697;42.144;24.794;2023-10-09T00:39:19;158137.31;;;21.52;56.59
5350;BME280;2697;42.144;24.794;2023-10-09T00:42:05;158130.63;;;21.49;56.94
5350;BME280;2697;42.144;24.794;2023-10-09T00:44:32;158078.88;;;21.29;56.81
5350;BME280;2697;42.144;24.794;2023-10-09T00:47:08;158060.28;;;21.22;57.65
5350;BME280;2697;42.144;24.794;2023-10-09T00:50:01;158054.94;;;21.20;58.00
5350;BME280;2697;42.144;24.794;2023-10-09T00:52:37;158065.56;;;21.24;57.62
5350;BME280;2697;42.144;24.794;2023-10-09T00:55:15;158025.75;;;21.09;58.26
5350;BME280;2697;42.144;24.794;2023-10-09T00:57:47;158031.03;;;21.11;58.00
5350;BME280;2697;42.144;24.794;2023-10-09T01:00:21;158023.09;;;21.08;58.06
5350;BME280;2697;42.144;24.794;2023-10-09T01:03:12;158029.72;;;21.11;57.98
5350;BME280;2697;42.144;24.794;2023-10-09T01:05:44;158039.03;;;21.14;57.75
5350;BME280;2697;42.144;24.794;2023-10-09T01:08:33;158007.16;;;21.02;57.73
5350;BME280;2697;42.144;24.794;2023-10-09T01:11:11;157968.69;;;20.87;57.52
5350;BME280;2697;42.144;24.794;2023-10-09T01:13:55;157996.56;;;20.98;57.71
5350;BME280;2697;42.144;24.794;2023-10-09T01:16:36;157956.72;;;20.83;57.99
5350;BME280;2697;42.144;24.794;2023-10-09T01:19:01;157967.38;;;20.87;59.01
5350;BME280;2697;42.144;24.794;2023-10-09T01:21:31;158001.84;;;21.00;58.46
5350;BME280;2697;42.144;24.794;2023-10-09T01:23:57;157861.22;;;20.46;59.26
5350;BME280;2697;42.144;24.794;2023-10-09T01:26:39;157882.44;;;20.54;60.02
5350;BME280;2697;42.144;24.794;2023-10-09T01:29:10;157853.25;;;20.43;60.51
5350;BME280;2697;42.144;24.794;2023-10-09T01:31:47;157816.06;;;20.29;60.96
5350;BME280;2697;42.144;24.794;2023-10-09T01:34:25;157797.53;;;20.21;61.10
5350;BME280;2697;42.144;24.794;2023-10-09T01:37:11;157794.88;;;20.20;61.19
5350;BME280;2697;42.144;24.794;2023-10-09T01:39:48;157780.25;;;20.15;60.99
5350;BME280;2697;42.144;24.794;2023-10-09T01:42:15;157778.94;;;20.14;61.06
5350;BME280;2697;42.144;24.794;2023-10-09T01:44:55;157797.53;;;20.21;60.11
5350;BME280;2697;42.144;24.794;2023-10-09T01:47:23;157776.28;;;20.13;60.25
5350;BME280;2697;42.144;24.794;2023-10-09T01:49:51;157829.34;;;20.34;58.80
5350;BME280;2697;42.144;24.794;2023-10-09T01:52:19;157871.84;;;20.50;57.85
5350;BME280;2697;42.144;24.794;2023-10-09T01:54:46;157887.72;;;20.56;57.76
5350;BME280;2697;42.144;24.794;2023-10-09T01:57:14;157919.59;;;20.68;57.67
5350;BME280;2697;42.144;24.794;2023-10-09T01:59:42;157897.06;;;20.60;57.23
5350;BME280;2697;42.144;24.794;2023-10-09T02:02:28;157914.31;;;20.66;57.39
5350;BME280;2697;42.144;24.794;2023-10-09T02:05:04;157814.72;;;20.28;58.12
5350;BME280;2697;42.144;24.794;2023-10-09T02:07:37;157920.94;;;20.69;57.49
5350;BME280;2697;42.144;24.794;2023-10-09T02:10:12;157866.56;;;20.48;58.21
5350;BME280;2697;42.144;24.794;2023-10-09T02:12:56;157765.66;;;20.09;59.64
5350;BME280;2697;42.144;24.794;2023-10-09T02:15:30;157662.25;;;19.70;62.28
5350;BME280;2697;42.144;24.794;2023-10-09T02:18:18;157317.59;;;18.37;70.34
5350;BME280;2697;42.144;24.794;2023-10-09T02:21:05;157129.50;;;17.65;75.33
5350;BME280;2697;42.144;24.794;2023-10-09T02:23:32;157005.06;;;17.17;79.42
5350;BME280;2697;42.144;24.794;2023-10-09T02:26:11;156915.06;;;16.83;79.58
5350;BME280;2697;42.144;24.794;2023-10-09T02:28:45;156909.81;;;16.80;79.66
5350;BME280;2697;42.144;24.794;2023-10-09T02:31:18;156803.94;;;16.40;80.58
5350;BME280;2697;42.144;24.794;2023-10-09T02:33:47;156760.28;;;16.23;80.34
5350;BME280;2697;42.144;24.794;2023-10-09T02:36:15;156714.00;;;16.05;79.66
5350;BME280;2697;42.144;24.794;2023-10-09T02:38:40;156707.41;;;16.03;79.53
5350;BME280;2697;42.144;24.794;2023-10-09T02:41:07;156703.44;;;16.01;80.38
5350;BME280;2697;42.144;24.794;2023-10-09T02:43:39;156643.91;;;15.78;80.89
5350;BME280;2697;42.144;24.794;2023-10-09T02:46:17;156634.69;;;15.75;81.17
5350;BME280;2697;42.144;24.794;2023-10-09T02:48:48;156608.25;;;15.64;81.45
5350;BME280;2697;42.144;24.794;2023-10-09T02:51:23;156610.88;;;15.65;81.95
5350;BME280;2697;42.144;24.794;2023-10-09T02:54:02;156576.44;;;15.52;79.99
5350;BME280;2697;42.144;24.794;2023-10-09T02:56:47;156534.19;;;15.36;80.23
5350;BME280;2697;42.144;24.794;2023-10-09T02:59:20;156505.06;;;15.25;80.32
5350;BME280;2697;42.144;24.794;2023-10-09T03:01:47;156483.91;;;15.17;80.56
5350;BME280;2697;42.144;24.794;2023-10-09T03:04:13;156473.38;;;15.13;80.47
5350;BME280;2697;42.144;24.794;2023-10-09T03:06:41;156452.22;;;15.04;81.03
5350;BME280;2697;42.144;24.794;2023-10-09T03:09:18;156457.47;;;15.06;81.01
5350;BME280;2697;42.144;24.794;2023-10-09T03:11:51;156436.38;;;14.98;80.85
5350;BME280;2697;42.144;24.794;2023-10-09T03:14:22;156444.31;;;15.01;81.20
5350;BME280;2697;42.144;24.794;2023-10-09T03:17:01;156461.50;;;15.08;80.94
5350;BME280;2697;42.144;24.794;2023-10-09T03:19:28;156452.22;;;15.04;81.24
5350;BME280;2697;42.144;24.794;2023-10-09T03:21:55;156440.34;;;15.00;80.99
5350;BME280;2697;42.144;24.794;2023-10-09T03:24:25;156446.94;;;15.02;80.72
5350;BME280;2697;42.144;24.794;2023-10-09T03:26:52;156431.06;;;14.96;81.07
5350;BME280;2697;42.144;24.794;2023-10-09T03:29:21;156433.69;;;14.97;80.87
5350;BME280;2697;42.144;24.794;2023-10-09T03:31:47;156412.59;;;14.89;81.00
5350;BME280;2697;42.144;24.794;2023-10-09T03:34:12;156380.88;;;14.77;81.25
5350;BME280;2697;42.144;24.794;2023-10-09T03:36:38;156402.00;;;14.85;80.87
5350;BME280;2697;42.144;24.794;2023-10-09T03:39:05;156391.47;;;14.81;81.48
5350;BME280;2697;42.144;24.794;2023-10-09T03:41:50;156408.59;;;14.88;80.74
5350;BME280;2697;42.144;24.794;2023-10-09T03:44:15;156384.81;;;14.78;80.79
5350;BME280;2697;42.144;24.794;2023-10-09T03:46:45;156354.44;;;14.67;81.49
5350;BME280;2697;42.144;24.794;2023-10-09T03:49:11;156357.09;;;14.68;81.32
5350;BME280;2697;42.144;24.794;2023-10-09T03:51:38;156341.28;;;14.62;81.50
5350;BME280;2697;42.144;24.794;2023-10-09T03:54:04;156341.28;;;14.62;81.55
5350;BME280;2697;42.144;24.794;2023-10-09T03:56:35;156333.31;;;14.59;81.50
5350;BME280;2697;42.144;24.794;2023-10-09T03:59:01;156342.59;;;14.62;80.62
5350;BME280;2697;42.144;24.794;2023-10-09T04:01:29;156367.69;;;14.72;79.81
5350;BME280;2697;42.144;24.794;2023-10-09T04:03:56;156357.09;;;14.68;79.30
5350;BME280;2697;42.144;24.794;2023-10-09T04:06:26;156342.59;;;14.62;79.54
5350;BME280;2697;42.144;24.794;2023-10-09T04:09:04;156332.00;;;14.58;77.22
5350;BME280;2697;42.144;24.794;2023-10-09T04:11:59;156289.66;;;14.42;77.03
5350;BME280;2697;42.144;24.794;2023-10-09T04:14:37;156277.81;;;14.37;75.26
5350;BME280;2697;42.144;24.794;2023-10-09T04:17:13;156279.13;;;14.38;74.38
5350;BME280;2697;42.144;24.794;2023-10-09T04:19:57;156250.06;;;14.26;73.85
5350;BME280;2697;42.144;24.794;2023-10-09T04:22:41;156248.75;;;14.26;73.45
5350;BME280;2697;42.144;24.794;2023-10-09T04:25:19;156264.56;;;14.32;72.99
5350;BME280;2697;42.144;24.794;2023-10-09T04:27:56;156230.25;;;14.19;73.04
5350;BME280;2697;42.144;24.794;2023-10-09T04:30:37;156191.94;;;14.04;73.12
5350;BME280;2697;42.144;24.794;2023-10-09T04:33:06;156238.16;;;14.22;72.89
5350;BME280;2697;42.144;24.794;2023-10-09T04:35:52;156206.50;;;14.10;72.50
5350;BME280;2697;42.144;24.794;2023-10-09T04:38:37;156193.25;;;14.05;72.42
5350;BME280;2697;42.144;24.794;2023-10-09T04:41:05;156215.72;;;14.13;72.25
5350;BME280;2697;42.144;24.794;2023-10-09T04:43:31;156217.03;;;14.14;71.84
5350;BME280;2697;42.144;24.794;2023-10-09T04:45:58;156180.09;;;14.00;71.80
5350;BME280;2697;42.144;24.794;2023-10-09T04:48:37;156178.78;;;13.99;72.08
5350;BME280;2697;42.144;24.794;2023-10-09T04:51:06;156191.94;;;14.04;71.68
5350;BME280;2697;42.144;24.794;2023-10-09T04:54:01;156227.63;;;14.18;69.98
5350;BME280;2697;42.144;24.794;2023-10-09T04:56:40;156201.22;;;14.08;70.17
5350;BME280;2697;42.144;24.794;2023-10-09T04:59:20;156255.34;;;14.29;69.39
5350;BME280;2697;42.144;24.794;2023-10-09T05:01:50;156251.41;;;14.27;68.75
5350;BME280;2697;42.144;24.794;2023-10-09T05:04:23;156191.94;;;14.04;68.57
5350;BME280;2697;42.144;24.794;2023-10-09T05:07:05;156209.13;;;14.11;69.13
5350;BME280;2697;42.144;24.794;2023-10-09T05:09:49;156190.63;;;14.04;68.08
5350;BME280;2697;42.144;24.794;2023-10-09T05:12:21;156198.59;;;14.07;66.33
5350;BME280;2697;42.144;24.794;2023-10-09T05:14:51;156232.91;;;14.20;66.22
5350;BME280;2697;42.144;24.794;2023-10-09T05:17:31;156219.72;;;14.15;64.60
5350;BME280;2697;42.144;24.794;2023-10-09T05:19:59;156248.75;;;14.26;64.22
5350;BME280;2697;42.144;24.794;2023-10-09T05:22:44;156238.16;;;14.22;64.34
5350;BME280;2697;42.144;24.794;2023-10-09T05:25:23;156254.03;;;14.28;63.72
5350;BME280;2697;42.144;24.794;2023-10-09T05:28:04;156267.25;;;14.33;63.29
5350;BME280;2697;42.144;24.794;2023-10-09T05:30:50;156217.03;;;14.14;63.91
5350;BME280;2697;42.144;24.794;2023-10-09T05:33:22;156197.28;;;14.06;63.32
5350;BME280;2697;42.144;24.794;2023-10-09T05:35:54;156230.25;;;14.19;63.47
5350;BME280;2697;42.144;24.794;2023-10-09T05:38:45;156217.03;;;14.14;63.53
5350;BME280;2697;42.144;24.794;2023-10-09T05:41:27;156177.47;;;13.98;63.88
5350;BME280;2697;42.144;24.794;2023-10-09T05:44:13;156217.03;;;14.14;64.16
5350;BME280;2697;42.144;24.794;2023-10-09T05:46:57;156218.34;;;14.14;63.85
5350;BME280;2697;42.144;24.794;2023-10-09T05:49:41;156219.72;;;14.15;63.71
5350;BME280;2697;42.144;24.794;2023-10-09T05:52:19;156263.25;;;14.32;62.58
5350;BME280;2697;42.144;24.794;2023-10-09T05:55:20;156285.72;;;14.40;61.99
5350;BME280;2697;42.144;24.794;2023-10-09T05:57:46;156305.56;;;14.48;61.13
5350;BME280;2697;42.144;24.794;2023-10-09T06:00:20;156272.53;;;14.35;61.12
5350;BME280;2697;42.144;24.794;2023-10-09T06:03:04;156248.75;;;14.26;60.24
5350;BME280;2697;42.144;24.794;2023-10-09T06:05:54;156269.91;;;14.34;59.90
5350;BME280;2697;42.144;24.794;2023-10-09T06:08:23;156248.75;;;14.26;59.50
5350;BME280;2697;42.144;24.794;2023-10-09T06:11:07;156246.13;;;14.25;59.25
5350;BME280;2697;42.144;24.794;2023-10-09T06:13:56;156238.16;;;14.22;59.69
5350;BME280;2697;42.144;24.794;2023-10-09T06:16:38;156285.72;;;14.40;58.75
5350;BME280;2697;42.144;24.794;2023-10-09T06:19:21;156294.97;;;14.44;58.18
5350;BME280;2697;42.144;24.794;2023-10-09T06:21:47;156326.72;;;14.56;58.50
5350;BME280;2697;42.144;24.794;2023-10-09T06:24:22;156384.81;;;14.78;58.16
5350;BME280;2697;42.144;24.794;2023-10-09T06:26:49;156374.28;;;14.74;57.63
5350;BME280;2697;42.144;24.794;2023-10-09T06:29:27;156322.75;;;14.54;58.42
5350;BME280;2697;42.144;24.794;2023-10-09T06:32:02;156335.94;;;14.60;58.57
5350;BME280;2697;42.144;24.794;2023-10-09T06:34:47;156318.81;;;14.53;57.62
5350;BME280;2697;42.144;24.794;2023-10-09T06:37:25;156361.03;;;14.69;58.06
5350;BME280;2697;42.144;24.794;2023-10-09T06:39:51;156396.75;;;14.83;57.40
5350;BME280;2697;42.144;24.794;2023-10-09T06:42:25;156354.44;;;14.67;57.97
5350;BME280;2697;42.144;24.794;2023-10-09T06:45:01;156351.81;;;14.66;57.98
5350;BME280;2697;42.144;24.794;2023-10-09T06:47:41;156326.72;;;14.56;57.65
5350;BME280;2697;42.144;24.794;2023-10-09T06:50:11;156355.78;;;14.67;57.01
5350;BME280;2697;42.144;24.794;2023-10-09T06:52:45;156375.59;;;14.75;57.54
5350;BME280;2697;42.144;24.794;2023-10-09T06:55:24;156395.41;;;14.82;57.57
5350;BME280;2697;42.144;24.794;2023-10-09T06:58:01;156391.47;;;14.81;57.67
5350;BME280;2697;42.144;24.794;2023-10-09T07:00:42;156452.22;;;15.04;57.15
5350;BME280;2697;42.144;24.794;2023-10-09T07:03:26;156486.59;;;15.18;57.46
5350;BME280;2697;42.144;24.794;2023-10-09T07:06:10;156542.09;;;15.39;56.26
5350;BME280;2697;42.144;24.794;2023-10-09T07:08:54;156555.28;;;15.44;55.84
5350;BME280;2697;42.144;24.794;2023-10-09T07:11:32;156528.84;;;15.34;56.95
5350;BME280;2697;42.144;24.794;2023-10-09T07:14:15;156526.22;;;15.33;56.14
5350;BME280;2697;42.144;24.794;2023-10-09T07:19:29;156536.81;;;15.37;56.63
5350;BME280;2697;42.144;24.794;2023-10-09T07:22:07;156567.19;;;15.49;56.04
5350;BME280;2697;42.144;24.794;2023-10-09T07:24:52;156617.47;;;15.68;54.84
5350;BME280;2697;42.144;24.794;2023-10-09T07:27:24;156509.06;;;15.26;56.54
5350;BME280;2697;42.144;24.794;2023-10-09T07:30:13;156522.25;;;15.31;56.30
5350;BME280;2697;42.144;24.794;2023-10-09T07:32:54;156572.47;;;15.51;56.47
5350;BME280;2697;42.144;24.794;2023-10-09T07:35:20;156645.22;;;15.79;56.29
5350;BME280;2697;42.144;24.794;2023-10-09T07:38:04;156647.88;;;15.80;55.47
5350;BME280;2697;42.144;24.794;2023-10-09T07:40:36;156663.75;;;15.86;55.58
5350;BME280;2697;42.144;24.794;2023-10-09T07:43:23;156688.88;;;15.95;55.61
5350;BME280;2697;42.144;24.794;2023-10-09T07:45:56;156756.31;;;16.21;54.10
5350;BME280;2697;42.144;24.794;2023-10-09T07:48:24;156687.56;;;15.95;55.38
5350;BME280;2697;42.144;24.794;2023-10-09T07:51:04;156732.53;;;16.12;54.70
5350;BME280;2697;42.144;24.794;2023-10-09T07:53:36;156719.28;;;16.07;54.86
5350;BME280;2697;42.144;24.794;2023-10-09T07:56:08;156761.59;;;16.23;54.96
5350;BME280;2697;42.144;24.794;2023-10-09T07:58:34;156801.31;;;16.39;54.67
5350;BME280;2697;42.144;24.794;2023-10-09T08:01:12;156788.06;;;16.34;55.46
5350;BME280;2697;42.144;24.794;2023-10-09T08:03:56;156695.47;;;15.98;56.03
5350;BME280;2697;42.144;24.794;2023-10-09T08:06:30;156751.03;;;16.19;57.00
5350;BME280;2697;42.144;24.794;2023-10-09T08:09:08;156707.41;;;16.03;56.57
5350;BME280;2697;42.144;24.794;2023-10-09T08:11:41;156714.00;;;16.05;56.65
5350;BME280;2697;42.144;24.794;2023-10-09T08:14:13;156741.75;;;16.16;56.42
5350;BME280;2697;42.144;24.794;2023-10-09T08:16:57;156684.91;;;15.94;55.99
5350;BME280;2697;42.144;24.794;2023-10-09T08:19:47;156616.16;;;15.67;55.95
5350;BME280;2697;42.144;24.794;2023-10-09T08:22:29;156699.44;;;16.00;56.65
5350;BME280;2697;42.144;24.794;2023-10-09T08:24:57;156780.13;;;16.31;56.89
5350;BME280;2697;42.144;24.794;2023-10-09T08:30:03;156793.31;;;16.36;55.63
5350;BME280;2697;42.144;24.794;2023-10-09T08:32:49;156862.13;;;16.62;56.08
5350;BME280;2697;42.144;24.794;2023-10-09T08:38:01;156790.69;;;16.35;56.05
5350;BME280;2697;42.144;24.794;2023-10-09T08:40:38;156782.78;;;16.32;56.25
5350;BME280;2697;42.144;24.794;2023-10-09T08:45:37;156885.97;;;16.71;56.52
5350;BME280;2697;42.144;24.794;2023-10-09T08:48:05;156892.59;;;16.74;55.98
5350;BME280;2697;42.144;24.794;2023-10-09T08:50:32;156864.75;;;16.63;56.30
5350;BME280;2697;42.144;24.794;2023-10-09T08:53:00;156930.97;;;16.89;56.06
5350;BME280;2697;42.144;24.794;2023-10-09T08:55:26;156882.03;;;16.70;56.50
5350;BME280;2697;42.144;24.794;2023-10-09T08:57:53;157002.44;;;17.16;55.87
5350;BME280;2697;42.144;24.794;2023-10-09T09:00:19;156998.47;;;17.15;56.55
5350;BME280;2697;42.144;24.794;2023-10-09T09:02:50;157034.19;;;17.28;55.65
5350;BME280;2697;42.144;24.794;2023-10-09T09:05:19;156991.81;;;17.12;56.53
5350;BME280;2697;42.144;24.794;2023-10-09T09:07:45;156962.72;;;17.01;57.44
5350;BME280;2697;42.144;24.794;2023-10-09T09:10:11;156985.22;;;17.09;57.63
5350;BME280;2697;42.144;24.794;2023-10-09T09:12:57;157079.19;;;17.46;57.14
5350;BME280;2697;42.144;24.794;2023-10-09T09:15:29;157110.94;;;17.58;56.52
5350;BME280;2697;42.144;24.794;2023-10-09T09:18:04;157113.63;;;17.59;56.81
5350;BME280;2697;42.144;24.794;2023-10-09T09:20:37;157224.88;;;18.02;55.68
5350;BME280;2697;42.144;24.794;2023-10-09T09:23:10;157303.00;;;18.32;54.97
5350;BME280;2697;42.144;24.794;2023-10-09T09:25:45;157259.34;;;18.15;54.88
5350;BME280;2697;42.144;24.794;2023-10-09T09:28:13;157246.06;;;18.10;54.57
5350;BME280;2697;42.144;24.794;2023-10-09T09:30:45;157138.78;;;17.69;54.72
5350;BME280;2697;42.144;24.794;2023-10-09T09:33:26;157164.00;;;17.78;55.60
5350;BME280;2697;42.144;24.794;2023-10-09T09:36:10;157158.66;;;17.76;55.06
5350;BME280;2697;42.144;24.794;2023-10-09T09:38:38;157065.97;;;17.41;56.17
5350;BME280;2697;42.144;24.794;2023-10-09T09:41:14;157190.47;;;17.88;55.43
5350;BME280;2697;42.144;24.794;2023-10-09T09:43:56;157251.34;;;18.12;55.44
5350;BME280;2697;42.144;24.794;2023-10-09T09:46:32;157257.97;;;18.14;54.48
5350;BME280;2697;42.144;24.794;2023-10-09T09:49:05;157256.66;;;18.14;54.02
5350;BME280;2697;42.144;24.794;2023-10-09T09:51:37;157254.00;;;18.13;54.01
5350;BME280;2697;42.144;24.794;2023-10-09T09:54:03;157085.78;;;17.48;55.38
5350;BME280;2697;42.144;24.794;2023-10-09T09:56:36;157187.84;;;17.87;55.08
5350;BME280;2697;42.144;24.794;2023-10-09T09:59:05;157349.38;;;18.49;54.00
5350;BME280;2697;42.144;24.794;2023-10-09T10:01:33;157428.94;;;18.80;53.67
5350;BME280;2697;42.144;24.794;2023-10-09T10:04:08;157468.66;;;18.95;53.13
5350;BME280;2697;42.144;24.794;2023-10-09T10:06:40;157336.16;;;18.44;53.40
5350;BME280;2697;42.144;24.794;2023-10-09T10:09:08;157314.94;;;18.36;53.57
5350;BME280;2697;42.144;24.794;2023-10-09T10:11:46;157383.84;;;18.63;52.72
5350;BME280;2697;42.144;24.794;2023-10-09T10:14:17;157293.75;;;18.28;52.97
5350;BME280;2697;42.144;24.794;2023-10-09T10:17:07;157344.09;;;18.47;53.25
5350;BME280;2697;42.144;24.794;2023-10-09T10:22:26;157402.41;;;18.70;53.00
5350;BME280;2697;42.144;24.794;2023-10-09T10:24:53;157320.25;;;18.38;53.45
5350;BME280;2697;42.144;24.794;2023-10-09T10:27:20;157346.72;;;18.48;52.84
5350;BME280;2697;42.144;24.794;2023-10-09T10:35:22;157462.06;;;18.93;51.61
5350;BME280;2697;42.144;24.794;2023-10-09T10:38:33;157497.81;;;19.06;51.58
5350;BME280;2697;42.144;24.794;2023-10-09T10:41:31;157492.53;;;19.04;52.09
5350;BME280;2697;42.144;24.794;2023-10-09T10:44:02;157594.56;;;19.44;51.26
5350;BME280;2697;42.144;24.794;2023-10-09T10:46:46;157629.13;;;19.57;50.77
5350;BME280;2697;42.144;24.794;2023-10-09T10:49:17;157591.91;;;19.43;51.04
5350;BME280;2697;42.144;24.794;2023-10-09T10:51:47;157656.94;;;19.68;50.13
5350;BME280;2697;42.144;24.794;2023-10-09T10:54:26;157659.59;;;19.69;49.63
5350;BME280;2697;42.144;24.794;2023-10-09T10:56:58;157574.72;;;19.36;49.12
5350;BME280;2697;42.144;24.794;2023-10-09T10:59:25;157582.66;;;19.39;50.09
5350;BME280;2697;42.144;24.794;2023-10-09T11:01:59;157537.59;;;19.22;49.72
5350;BME280;2697;42.144;24.794;2023-10-09T11:04:28;157591.91;;;19.43;49.34
5350;BME280;2697;42.144;24.794;2023-10-09T11:07:10;157627.78;;;19.56;49.95
5350;BME280;2697;42.144;24.794;2023-10-09T11:09:48;157686.09;;;19.79;49.84
5350;BME280;2697;42.144;24.794;2023-10-09T11:12:31;157643.66;;;19.62;49.20
5350;BME280;2697;42.144;24.794;2023-10-09T11:15:33;157771.00;;;20.11;47.96
5350;BME280;2697;42.144;24.794;2023-10-09T11:18:14;157717.91;;;19.91;48.00
5350;BME280;2697;42.144;24.794;2023-10-09T11:21:14;157649.00;;;19.64;49.14
5350;BME280;2697;42.144;24.794;2023-10-09T11:23:41;157633.09;;;19.58;49.02
5350;BME280;2697;42.144;24.794;2023-10-09T11:26:27;157731.19;;;19.96;48.61
5350;BME280;2697;42.144;24.794;2023-10-09T11:32:04;157747.13;;;20.02;47.54
5350;BME280;2697;42.144;24.794;2023-10-09T11:34:31;157751.09;;;20.04;48.00
5350;BME280;2697;42.144;24.794;2023-10-09T11:37:12;157728.53;;;19.95;47.90
5350;BME280;2697;42.144;24.794;2023-10-09T11:39:39;157675.53;;;19.75;47.67
5350;BME280;2697;42.144;24.794;2023-10-09T11:42:21;157768.34;;;20.10;47.22
5350;BME280;2697;42.144;24.794;2023-10-09T11:45:08;157744.47;;;20.01;46.66
5350;BME280;2697;42.144;24.794;2023-10-09T11:47:49;157744.47;;;20.01;47.23
5350;BME280;2697;42.144;24.794;2023-10-09T11:50:42;157719.22;;;19.91;47.26
5350;BME280;2697;42.144;24.794;2023-10-09T11:53:11;157731.19;;;19.96;46.07
5350;BME280;2697;42.144;24.794;2023-10-09T11:55:46;157702.03;;;19.85;46.19
5350;BME280;2697;42.144;24.794;2023-10-09T11:58:18;157743.09;;;20.01;45.94
5350;BME280;2697;42.144;24.794;2023-10-09T12:00:57;157771.00;;;20.11;46.63
5350;BME280;2697;42.144;24.794;2023-10-09T12:03:29;157771.00;;;20.11;46.86
5350;BME280;2697;42.144;24.794;2023-10-09T12:06:02;157879.78;;;20.53;46.23
5350;BME280;2697;42.144;24.794;2023-10-09T12:08:31;157893.06;;;20.58;45.52
5350;BME280;2697;42.144;24.794;2023-10-09T12:10:58;157853.25;;;20.43;45.65
5350;BME280;2697;42.144;24.794;2023-10-09T12:13:24;157845.28;;;20.40;45.58
5350;BME280;2697;42.144;24.794;2023-10-09T12:15:51;157805.47;;;20.25;45.97
5350;BME280;2697;42.144;24.794;2023-10-09T12:18:21;157808.09;;;20.26;45.49
5350;BME280;2697;42.144;24.794;2023-10-09T12:20:47;157855.91;;;20.44;45.64
5350;BME280;2697;42.144;24.794;2023-10-09T12:23:16;157879.78;;;20.53;45.25
5350;BME280;2697;42.144;24.794;2023-10-09T12:25:42;157894.41;;;20.59;45.63
5350;BME280;2697;42.144;24.794;2023-10-09T12:28:10;157822.72;;;20.31;45.23
5350;BME280;2697;42.144;24.794;2023-10-09T12:30:37;157871.84;;;20.50;45.38
5350;BME280;2697;42.144;24.794;2023-10-09T12:33:05;157870.53;;;20.49;44.56
5350;BME280;2697;42.144;24.794;2023-10-09T12:35:37;157895.72;;;20.59;44.83
5350;BME280;2697;42.144;24.794;2023-10-09T12:38:03;157882.44;;;20.54;44.88
5350;BME280;2697;42.144;24.794;2023-10-09T12:40:29;157875.81;;;20.52;45.17
5350;BME280;2697;42.144;24.794;2023-10-09T12:42:56;157901.03;;;20.61;44.51
5350;BME280;2697;42.144;24.794;2023-10-09T12:45:25;157906.31;;;20.63;44.71
5350;BME280;2697;42.144;24.794;2023-10-09T12:47:58;157862.53;;;20.46;44.42
5350;BME280;2697;42.144;24.794;2023-10-09T12:50:33;157841.31;;;20.38;44.47
5350;BME280;2697;42.144;24.794;2023-10-09T12:52:59;157792.22;;;20.19;44.86
5350;BME280;2697;42.144;24.794;2023-10-09T12:55:34;157863.84;;;20.47;44.59
5350;BME280;2697;42.144;24.794;2023-10-09T12:58:01;157858.56;;;20.45;43.90
5350;BME280;2697;42.144;24.794;2023-10-09T13:00:36;157907.63;;;20.64;43.43
5350;BME280;2697;42.144;24.794;2023-10-09T13:03:05;157958.06;;;20.83;42.83
5350;BME280;2697;42.144;24.794;2023-10-09T13:05:48;157857.22;;;20.44;43.28
5350;BME280;2697;42.144;24.794;2023-10-09T13:08:29;157885.09;;;20.55;43.41
5350;BME280;2697;42.144;24.794;2023-10-09T13:11:08;157858.56;;;20.45;43.90
5350;BME280;2697;42.144;24.794;2023-10-09T13:13:36;157830.66;;;20.34;43.47
5350;BME280;2697;42.144;24.794;2023-10-09T13:16:16;157914.31;;;20.66;43.96
5350;BME280;2697;42.144;24.794;2023-10-09T13:18:56;157976.66;;;20.90;43.05
5350;BME280;2697;42.144;24.794;2023-10-09T13:21:25;157956.72;;;20.83;42.45
5350;BME280;2697;42.144;24.794;2023-10-09T13:23:52;157928.88;;;20.72;42.63
5350;BME280;2697;42.144;24.794;2023-10-09T13:26:20;157901.03;;;20.61;42.55
5350;BME280;2697;42.144;24.794;2023-10-09T13:28:51;157842.63;;;20.39;42.99
5350;BME280;2697;42.144;24.794;2023-10-09T13:31:18;157932.84;;;20.73;42.90
5350;BME280;2697;42.144;24.794;2023-10-09T13:33:44;157972.66;;;20.89;42.15
5350;BME280;2697;42.144;24.794;2023-10-09T13:36:11;157887.72;;;20.56;42.75
5350;BME280;2697;42.144;24.794;2023-10-09T13:38:55;157874.50;;;20.51;42.97
5350;BME280;2697;42.144;24.794;2023-10-09T13:41:22;157849.25;;;20.41;42.92
5350;BME280;2697;42.144;24.794;2023-10-09T13:43:47;157893.06;;;20.58;42.84
5350;BME280;2697;42.144;24.794;2023-10-09T13:46:17;157944.81;;;20.78;42.20
5350;BME280;2697;42.144;24.794;2023-10-09T13:48:43;157871.84;;;20.50;42.85
5350;BME280;2697;42.144;24.794;2023-10-09T13:51:11;157885.09;;;20.55;43.13
5350;BME280;2697;42.144;24.794;2023-10-09T13:53:43;157964.72;;;20.86;42.59
5350;BME280;2697;42.144;24.794;2023-10-09T13:56:17;157952.75;;;20.81;42.92
5350;BME280;2697;42.144;24.794;2023-10-09T13:58:51;157928.88;;;20.72;42.65
5350;BME280;2697;42.144;24.794;2023-10-09T14:01:19;157916.97;;;20.67;42.67